FFT2324 KLAS-KRNO
Flight info
| Callsign | FFT2324 |
|---|---|
| Flight time | 0h 59m |
| Altitude | 36000 |
| Route | JOHKR5 KENNO TARVR2 |
| Aircraft | A20N/M-SDE2E3FGHIRWXY/LB1 |
Departure
| Time | 2026-05-04 18:50 |
|---|---|
| Airport | Harry Reid International Airport (KLAS) |
Arrival
| Time | 2026-05-04 19:49 |
|---|---|
| Airport | Reno Tahoe International Airport (KRNO) |
| Time | Latitude | Longitude | Altitude | Speed | Heading |
|---|---|---|---|---|---|
| 2026-05-04 18:05 | 36.08408 | -115.15225 | 2115 ft | 0 kts | 89° |
| 2026-05-04 18:26 | 36.08408 | -115.15229 | 2116 ft | 2 kts | 89° |
| 2026-05-04 18:26 | 36.08407 | -115.15247 | 2117 ft | 2 kts | 88° |
| 2026-05-04 18:26 | 36.08407 | -115.15264 | 2117 ft | 2 kts | 93° |
| 2026-05-04 18:26 | 36.08413 | -115.15282 | 2118 ft | 2 kts | 129° |
| 2026-05-04 18:27 | 36.08425 | -115.15295 | 2118 ft | 2 kts | 160° |
| 2026-05-04 18:27 | 36.08436 | -115.15298 | 2117 ft | 0 kts | 180° |
| 2026-05-04 18:27 | 36.08433 | -115.15299 | 2118 ft | 1 kts | 199° |
| 2026-05-04 18:27 | 36.08424 | -115.15318 | 2119 ft | 1 kts | 245° |
| 2026-05-04 18:28 | 36.08423 | -115.15321 | 2119 ft | 0 kts | 245° |
| 2026-05-04 18:33 | 36.08425 | -115.15313 | 2119 ft | 0 kts | 246° |
| 2026-05-04 18:34 | 36.08422 | -115.15324 | 2119 ft | 3 kts | 246° |
| 2026-05-04 18:34 | 36.08408 | -115.15366 | 2121 ft | 7 kts | 249° |
| 2026-05-04 18:34 | 36.08378 | -115.15443 | 2124 ft | 12 kts | 245° |
| 2026-05-04 18:34 | 36.08338 | -115.15540 | 2128 ft | 11 kts | 239° |
| 2026-05-04 18:35 | 36.08287 | -115.15567 | 2131 ft | 7 kts | 166° |
| 2026-05-04 18:35 | 36.08248 | -115.15547 | 2131 ft | 5 kts | 156° |
| 2026-05-04 18:35 | 36.08209 | -115.15525 | 2130 ft | 7 kts | 156° |
| 2026-05-04 18:35 | 36.08158 | -115.15498 | 2130 ft | 9 kts | 155° |
| 2026-05-04 18:36 | 36.08102 | -115.15466 | 2131 ft | 9 kts | 156° |
| 2026-05-04 18:36 | 36.08045 | -115.15433 | 2132 ft | 9 kts | 154° |
| 2026-05-04 18:36 | 36.07982 | -115.15395 | 2132 ft | 11 kts | 155° |
| 2026-05-04 18:36 | 36.07907 | -115.15352 | 2131 ft | 13 kts | 154° |
| 2026-05-04 18:37 | 36.07880 | -115.15265 | 2129 ft | 14 kts | 90° |
| 2026-05-04 18:37 | 36.07877 | -115.15138 | 2124 ft | 17 kts | 93° |
| 2026-05-04 18:37 | 36.07869 | -115.14991 | 2120 ft | 19 kts | 95° |
| 2026-05-04 18:37 | 36.07859 | -115.14823 | 2114 ft | 22 kts | 94° |
| 2026-05-04 18:38 | 36.07846 | -115.14641 | 2109 ft | 23 kts | 95° |
| 2026-05-04 18:38 | 36.07833 | -115.14439 | 2102 ft | 25 kts | 96° |
| 2026-05-04 18:38 | 36.07825 | -115.14226 | 2096 ft | 26 kts | 91° |
| 2026-05-04 18:38 | 36.07825 | -115.14005 | 2089 ft | 28 kts | 90° |
| 2026-05-04 18:39 | 36.07824 | -115.13798 | 2084 ft | 25 kts | 89° |
| 2026-05-04 18:39 | 36.07825 | -115.13579 | 2077 ft | 26 kts | 88° |
| 2026-05-04 18:39 | 36.07826 | -115.13399 | 2072 ft | 23 kts | 88° |
| 2026-05-04 18:39 | 36.07827 | -115.13206 | 2067 ft | 24 kts | 89° |
| 2026-05-04 18:40 | 36.07826 | -115.12998 | 2060 ft | 26 kts | 90° |
| 2026-05-04 18:40 | 36.07827 | -115.12801 | 2056 ft | 23 kts | 91° |
| 2026-05-04 18:40 | 36.07826 | -115.12610 | 2052 ft | 24 kts | 91° |
| 2026-05-04 18:40 | 36.07826 | -115.12421 | 2049 ft | 19 kts | 90° |
| 2026-05-04 18:41 | 36.07827 | -115.12322 | 2047 ft | 0 kts | 90° |
| 2026-05-04 18:45 | 36.07827 | -115.12320 | 2047 ft | 1 kts | 90° |
| 2026-05-04 18:45 | 36.07827 | -115.12312 | 2047 ft | 0 kts | 90° |
| 2026-05-04 18:45 | 36.07827 | -115.12302 | 2047 ft | 4 kts | 92° |
| 2026-05-04 18:45 | 36.07808 | -115.12244 | 2048 ft | 11 kts | 127° |
| 2026-05-04 18:46 | 36.07756 | -115.12162 | 2047 ft | 9 kts | 128° |
| 2026-05-04 18:46 | 36.07744 | -115.12145 | 2047 ft | 0 kts | 139° |
| 2026-05-04 18:47 | 36.07718 | -115.12131 | 2048 ft | 7 kts | 173° |
| 2026-05-04 18:48 | 36.07648 | -115.12137 | 2049 ft | 10 kts | 205° |
| 2026-05-04 18:48 | 36.07639 | -115.12168 | 2050 ft | 3 kts | 281° |
| 2026-05-04 18:48 | 36.07642 | -115.12197 | 2050 ft | 4 kts | 276° |
| 2026-05-04 18:48 | 36.07643 | -115.12229 | 2050 ft | 0 kts | 270° |
| 2026-05-04 18:49 | 36.07643 | -115.12259 | 2050 ft | 20 kts | 269° |
| 2026-05-04 18:49 | 36.07642 | -115.12727 | 2059 ft | 95 kts | 269° |
| 2026-05-04 18:49 | 36.07642 | -115.13719 | 2085 ft | 154 kts | 268° |
| 2026-05-04 18:49 | 36.07652 | -115.15111 | 2401 ft | 181 kts | 267° |
| 2026-05-04 18:50 | 36.07715 | -115.16634 | 3002 ft | 194 kts | 269° |
| 2026-05-04 18:50 | 36.07807 | -115.18265 | 3582 ft | 212 kts | 270° |
| 2026-05-04 18:50 | 36.07834 | -115.20091 | 4098 ft | 234 kts | 261° |
| 2026-05-04 18:50 | 36.07569 | -115.22044 | 4651 ft | 239 kts | 255° |
| 2026-05-04 18:51 | 36.07229 | -115.23994 | 5245 ft | 242 kts | 251° |
| 2026-05-04 18:51 | 36.06470 | -115.25770 | 5982 ft | 242 kts | 223° |
| 2026-05-04 18:51 | 36.05121 | -115.26828 | 6730 ft | 243 kts | 200° |
| 2026-05-04 18:51 | 36.03585 | -115.27495 | 7409 ft | 247 kts | 198° |
| 2026-05-04 18:52 | 36.02018 | -115.28162 | 7834 ft | 249 kts | 199° |
| 2026-05-04 18:52 | 36.00442 | -115.28851 | 8009 ft | 249 kts | 199° |
| 2026-05-04 18:52 | 35.98898 | -115.29636 | 8007 ft | 248 kts | 205° |
| 2026-05-04 18:52 | 35.97395 | -115.30577 | 8129 ft | 258 kts | 207° |
| 2026-05-04 18:53 | 35.95824 | -115.31602 | 8536 ft | 275 kts | 207° |
| 2026-05-04 18:53 | 35.94201 | -115.32667 | 9332 ft | 277 kts | 207° |
| 2026-05-04 18:53 | 35.92575 | -115.33732 | 10129 ft | 278 kts | 207° |
| 2026-05-04 18:53 | 35.90950 | -115.34796 | 10680 ft | 281 kts | 208° |
| 2026-05-04 18:54 | 35.89471 | -115.36174 | 10968 ft | 283 kts | 230° |
| 2026-05-04 18:54 | 35.88590 | -115.38238 | 11035 ft | 287 kts | 254° |
| 2026-05-04 18:54 | 35.88454 | -115.40604 | 11071 ft | 289 kts | 269° |
| 2026-05-04 18:54 | 35.88547 | -115.42957 | 11062 ft | 289 kts | 269° |
| 2026-05-04 18:55 | 35.88634 | -115.45401 | 11049 ft | 288 kts | 269° |
| 2026-05-04 18:55 | 35.88757 | -115.50220 | 11065 ft | 291 kts | 269° |
| 2026-05-04 18:55 | 35.88806 | -115.52624 | 11363 ft | 299 kts | 269° |
| 2026-05-04 18:56 | 35.88854 | -115.55029 | 12179 ft | 297 kts | 269° |
| 2026-05-04 18:56 | 35.88902 | -115.57448 | 13026 ft | 296 kts | 269° |
| 2026-05-04 18:56 | 35.88952 | -115.59866 | 13811 ft | 296 kts | 268° |
| 2026-05-04 18:56 | 35.88998 | -115.62260 | 14488 ft | 299 kts | 269° |
| 2026-05-04 18:57 | 35.89043 | -115.64712 | 14811 ft | 314 kts | 268° |
| 2026-05-04 18:57 | 35.89088 | -115.67317 | 15345 ft | 322 kts | 267° |
| 2026-05-04 18:57 | 35.89138 | -115.69871 | 16082 ft | 321 kts | 268° |
| 2026-05-04 18:57 | 35.89187 | -115.72465 | 16801 ft | 321 kts | 266° |
| 2026-05-04 18:58 | 35.89232 | -115.75055 | 17518 ft | 321 kts | 266° |
| 2026-05-04 18:58 | 35.89278 | -115.77627 | 18285 ft | 319 kts | 266° |
| 2026-05-04 18:58 | 35.89323 | -115.80177 | 18984 ft | 319 kts | 266° |
| 2026-05-04 18:58 | 35.89368 | -115.82688 | 19590 ft | 321 kts | 265° |
| 2026-05-04 18:59 | 35.89408 | -115.85290 | 20177 ft | 323 kts | 266° |
| 2026-05-04 18:59 | 35.89447 | -115.87865 | 20718 ft | 327 kts | 266° |
| 2026-05-04 18:59 | 35.89516 | -115.90512 | 21240 ft | 332 kts | 271° |
| 2026-05-04 18:59 | 35.90005 | -115.93102 | 21770 ft | 343 kts | 284° |
| 2026-05-04 19:00 | 35.91080 | -115.95584 | 22305 ft | 357 kts | 298° |
| 2026-05-04 19:00 | 35.92652 | -115.97766 | 22838 ft | 368 kts | 306° |
| 2026-05-04 19:00 | 35.94373 | -115.99873 | 23330 ft | 371 kts | 306° |
| 2026-05-04 19:00 | 35.96116 | -116.01986 | 23746 ft | 376 kts | 306° |
| 2026-05-04 19:01 | 35.97844 | -116.04087 | 24257 ft | 376 kts | 305° |
| 2026-05-04 19:01 | 35.99566 | -116.06182 | 24864 ft | 373 kts | 304° |
| 2026-05-04 19:01 | 36.01855 | -116.08988 | 25480 ft | 375 kts | 303° |
| 2026-05-04 19:01 | 36.03011 | -116.10413 | 25730 ft | 377 kts | 303° |
| 2026-05-04 19:02 | 36.04734 | -116.12552 | 26135 ft | 379 kts | 303° |
| 2026-05-04 19:02 | 36.06472 | -116.14699 | 26561 ft | 381 kts | 302° |
| 2026-05-04 19:02 | 36.08215 | -116.16864 | 26911 ft | 384 kts | 302° |
| 2026-05-04 19:02 | 36.09993 | -116.19071 | 27255 ft | 388 kts | 302° |
| 2026-05-04 19:03 | 36.11732 | -116.21227 | 27613 ft | 390 kts | 302° |
| 2026-05-04 19:03 | 36.13522 | -116.23450 | 27971 ft | 391 kts | 301° |
| 2026-05-04 19:03 | 36.15287 | -116.25643 | 28331 ft | 393 kts | 301° |
| 2026-05-04 19:03 | 36.17075 | -116.27866 | 28646 ft | 395 kts | 301° |
| 2026-05-04 19:04 | 36.18842 | -116.30061 | 29008 ft | 396 kts | 301° |
| 2026-05-04 19:04 | 36.20645 | -116.32307 | 29262 ft | 400 kts | 300° |
| 2026-05-04 19:04 | 36.22446 | -116.34560 | 29565 ft | 402 kts | 300° |
| 2026-05-04 19:04 | 36.24233 | -116.36787 | 30001 ft | 400 kts | 300° |
| 2026-05-04 19:05 | 36.26056 | -116.39057 | 30349 ft | 402 kts | 300° |
| 2026-05-04 19:05 | 36.27866 | -116.41320 | 30588 ft | 405 kts | 300° |
| 2026-05-04 19:05 | 36.29700 | -116.43566 | 30827 ft | 410 kts | 301° |
| 2026-05-04 19:05 | 36.31578 | -116.45802 | 31034 ft | 414 kts | 302° |
| 2026-05-04 19:06 | 36.33496 | -116.48066 | 31370 ft | 414 kts | 302° |
| 2026-05-04 19:06 | 36.35419 | -116.50330 | 31744 ft | 412 kts | 302° |
| 2026-05-04 19:06 | 36.37284 | -116.52531 | 32189 ft | 409 kts | 301° |
| 2026-05-04 19:06 | 36.39339 | -116.54972 | 32492 ft | 409 kts | 301° |
| 2026-05-04 19:07 | 36.41272 | -116.57279 | 32739 ft | 410 kts | 301° |
| 2026-05-04 19:07 | 36.43229 | -116.59617 | 33153 ft | 406 kts | 300° |
| 2026-05-04 19:07 | 36.45122 | -116.61858 | 33702 ft | 402 kts | 301° |
| 2026-05-04 19:07 | 36.47066 | -116.64089 | 34062 ft | 403 kts | 302° |
| 2026-05-04 19:08 | 36.49083 | -116.66373 | 34223 ft | 407 kts | 301° |
| 2026-05-04 19:08 | 36.51144 | -116.68706 | 34444 ft | 410 kts | 302° |
| 2026-05-04 19:08 | 36.53223 | -116.71069 | 34705 ft | 411 kts | 302° |
| 2026-05-04 19:08 | 36.55309 | -116.73440 | 35097 ft | 409 kts | 303° |
| 2026-05-04 19:09 | 36.57383 | -116.75799 | 35453 ft | 408 kts | 302° |
| 2026-05-04 19:09 | 36.59467 | -116.78172 | 35648 ft | 409 kts | 302° |
| 2026-05-04 19:09 | 36.61558 | -116.80569 | 35792 ft | 412 kts | 303° |
| 2026-05-04 19:09 | 36.63627 | -116.82931 | 35917 ft | 415 kts | 303° |
| 2026-05-04 19:10 | 36.67168 | -116.86977 | 35918 ft | 419 kts | 303° |
| 2026-05-04 19:10 | 36.72314 | -116.92493 | 35919 ft | 426 kts | 309° |
| 2026-05-04 19:11 | 36.77205 | -116.96629 | 35921 ft | 434 kts | 316° |
| 2026-05-04 19:11 | 36.82436 | -117.00149 | 35930 ft | 430 kts | 320° |
| 2026-05-04 19:12 | 36.90337 | -117.05248 | 35935 ft | 434 kts | 320° |
| 2026-05-04 19:13 | 36.95647 | -117.08684 | 35934 ft | 430 kts | 320° |
| 2026-05-04 19:13 | 37.00913 | -117.12112 | 35936 ft | 430 kts | 321° |
| 2026-05-04 19:14 | 37.06050 | -117.15459 | 35940 ft | 431 kts | 321° |
| 2026-05-04 19:14 | 37.11305 | -117.18890 | 35932 ft | 432 kts | 321° |
| 2026-05-04 19:15 | 37.16525 | -117.22299 | 35934 ft | 433 kts | 321° |
| 2026-05-04 19:15 | 37.22578 | -117.26261 | 35929 ft | 435 kts | 321° |
| 2026-05-04 19:16 | 37.26874 | -117.29147 | 35936 ft | 429 kts | 319° |
| 2026-05-04 19:16 | 37.31695 | -117.33135 | 35934 ft | 426 kts | 313° |
| 2026-05-04 19:17 | 37.36184 | -117.37769 | 35933 ft | 429 kts | 309° |
| 2026-05-04 19:17 | 37.40638 | -117.42567 | 35938 ft | 432 kts | 310° |
| 2026-05-04 19:18 | 37.45118 | -117.47372 | 35935 ft | 433 kts | 310° |
| 2026-05-04 19:18 | 37.49388 | -117.52383 | 35933 ft | 426 kts | 304° |
| 2026-05-04 19:19 | 37.53134 | -117.57861 | 35941 ft | 419 kts | 299° |
| 2026-05-04 19:19 | 37.56595 | -117.63397 | 35937 ft | 420 kts | 299° |
| 2026-05-04 19:20 | 37.60045 | -117.68943 | 35938 ft | 420 kts | 298° |
| 2026-05-04 19:20 | 37.63532 | -117.74551 | 35934 ft | 419 kts | 298° |
| 2026-05-04 19:21 | 37.67635 | -117.79746 | 35935 ft | 436 kts | 314° |
| 2026-05-04 19:21 | 37.72832 | -117.83476 | 35935 ft | 439 kts | 325° |
| 2026-05-04 19:22 | 37.78208 | -117.86726 | 35935 ft | 439 kts | 325° |
| 2026-05-04 19:22 | 37.83588 | -117.90012 | 35935 ft | 438 kts | 325° |
| 2026-05-04 19:23 | 37.88999 | -117.93353 | 35933 ft | 438 kts | 324° |
| 2026-05-04 19:23 | 37.94166 | -117.96555 | 35931 ft | 438 kts | 324° |
| 2026-05-04 19:24 | 37.99313 | -117.99757 | 35928 ft | 439 kts | 324° |
| 2026-05-04 19:24 | 38.04480 | -118.02975 | 35929 ft | 440 kts | 324° |
| 2026-05-04 19:25 | 38.09629 | -118.06189 | 35926 ft | 439 kts | 325° |
| 2026-05-04 19:25 | 38.14724 | -118.09371 | 35921 ft | 440 kts | 325° |
| 2026-05-04 19:26 | 38.19808 | -118.12550 | 35923 ft | 438 kts | 326° |
| 2026-05-04 19:26 | 38.24863 | -118.15717 | 35930 ft | 439 kts | 326° |
| 2026-05-04 19:27 | 38.29968 | -118.18921 | 35934 ft | 440 kts | 326° |
| 2026-05-04 19:27 | 38.35048 | -118.22117 | 35893 ft | 438 kts | 326° |
| 2026-05-04 19:27 | 38.37533 | -118.23751 | 35650 ft | 432 kts | 324° |
| 2026-05-04 19:28 | 38.39928 | -118.25516 | 35137 ft | 429 kts | 321° |
| 2026-05-04 19:28 | 38.42196 | -118.27428 | 34486 ft | 429 kts | 316° |
| 2026-05-04 19:28 | 38.44405 | -118.29565 | 34085 ft | 433 kts | 314° |
| 2026-05-04 19:28 | 38.46533 | -118.31902 | 33939 ft | 437 kts | 310° |
| 2026-05-04 19:29 | 38.48577 | -118.34371 | 33944 ft | 440 kts | 309° |
| 2026-05-04 19:29 | 38.52684 | -118.39454 | 33939 ft | 440 kts | 309° |
| 2026-05-04 19:30 | 38.56780 | -118.44531 | 33944 ft | 440 kts | 310° |
| 2026-05-04 19:30 | 38.60850 | -118.49583 | 33958 ft | 441 kts | 310° |
| 2026-05-04 19:31 | 38.64840 | -118.54524 | 33693 ft | 430 kts | 310° |
| 2026-05-04 19:31 | 38.66800 | -118.56962 | 33217 ft | 430 kts | 311° |
| 2026-05-04 19:31 | 38.68821 | -118.59483 | 32625 ft | 433 kts | 312° |
| 2026-05-04 19:31 | 38.70862 | -118.62036 | 31973 ft | 438 kts | 313° |
| 2026-05-04 19:32 | 38.72912 | -118.64596 | 31302 ft | 444 kts | 314° |
| 2026-05-04 19:32 | 38.74890 | -118.67066 | 30640 ft | 450 kts | 315° |
| 2026-05-04 19:32 | 38.76950 | -118.69630 | 30135 ft | 451 kts | 316° |
| 2026-05-04 19:32 | 38.78984 | -118.72156 | 29471 ft | 453 kts | 316° |
| 2026-05-04 19:33 | 38.81128 | -118.74815 | 28761 ft | 455 kts | 317° |
| 2026-05-04 19:33 | 38.83194 | -118.77383 | 28097 ft | 457 kts | 317° |
| 2026-05-04 19:33 | 38.85266 | -118.79961 | 27413 ft | 458 kts | 318° |
| 2026-05-04 19:33 | 38.87336 | -118.82537 | 26731 ft | 458 kts | 318° |
| 2026-05-04 19:34 | 38.89440 | -118.85167 | 26041 ft | 459 kts | 319° |
| 2026-05-04 19:34 | 38.91515 | -118.87759 | 25353 ft | 459 kts | 319° |
| 2026-05-04 19:34 | 38.93578 | -118.90333 | 24654 ft | 458 kts | 319° |
| 2026-05-04 19:34 | 38.95646 | -118.92924 | 23935 ft | 455 kts | 319° |
| 2026-05-04 19:35 | 38.97660 | -118.95454 | 23215 ft | 441 kts | 319° |
| 2026-05-04 19:35 | 38.99534 | -118.97805 | 22532 ft | 427 kts | 319° |
| 2026-05-04 19:35 | 39.01599 | -119.00396 | 21756 ft | 413 kts | 320° |
| 2026-05-04 19:35 | 39.03599 | -119.02907 | 20980 ft | 400 kts | 319° |
| 2026-05-04 19:36 | 39.05429 | -119.05205 | 20251 ft | 389 kts | 319° |
| 2026-05-04 19:36 | 39.07091 | -119.07293 | 19578 ft | 381 kts | 319° |
| 2026-05-04 19:36 | 39.08744 | -119.09373 | 18895 ft | 373 kts | 319° |
| 2026-05-04 19:36 | 39.10430 | -119.11498 | 18199 ft | 372 kts | 319° |
| 2026-05-04 19:37 | 39.12076 | -119.13567 | 17530 ft | 375 kts | 319° |
| 2026-05-04 19:37 | 39.13756 | -119.15687 | 16848 ft | 378 kts | 318° |
| 2026-05-04 19:37 | 39.15544 | -119.17944 | 16122 ft | 373 kts | 319° |
| 2026-05-04 19:37 | 39.17153 | -119.19977 | 15468 ft | 367 kts | 319° |
| 2026-05-04 19:38 | 39.18741 | -119.21982 | 14804 ft | 360 kts | 318° |
| 2026-05-04 19:38 | 39.20293 | -119.23944 | 14149 ft | 353 kts | 318° |
| 2026-05-04 19:38 | 39.21841 | -119.25899 | 13530 ft | 345 kts | 318° |
| 2026-05-04 19:38 | 39.23327 | -119.27780 | 13130 ft | 336 kts | 318° |
| 2026-05-04 19:39 | 39.24798 | -119.29642 | 12976 ft | 334 kts | 319° |
| 2026-05-04 19:39 | 39.26249 | -119.31477 | 12979 ft | 334 kts | 319° |
| 2026-05-04 19:39 | 39.27716 | -119.33334 | 12981 ft | 334 kts | 318° |
| 2026-05-04 19:39 | 39.29186 | -119.35200 | 12986 ft | 334 kts | 319° |
| 2026-05-04 19:40 | 39.30626 | -119.37028 | 12979 ft | 333 kts | 319° |
| 2026-05-04 19:40 | 39.32079 | -119.38875 | 12978 ft | 326 kts | 319° |
| 2026-05-04 19:40 | 39.33460 | -119.40635 | 12979 ft | 303 kts | 319° |
| 2026-05-04 19:40 | 39.34752 | -119.42248 | 12992 ft | 289 kts | 322° |
| 2026-05-04 19:41 | 39.36103 | -119.43707 | 12993 ft | 284 kts | 326° |
| 2026-05-04 19:41 | 39.37482 | -119.45018 | 12996 ft | 282 kts | 328° |
| 2026-05-04 19:41 | 39.38872 | -119.46306 | 12997 ft | 282 kts | 328° |
| 2026-05-04 19:41 | 39.40253 | -119.47584 | 12997 ft | 282 kts | 328° |
| 2026-05-04 19:42 | 39.41703 | -119.48927 | 12997 ft | 281 kts | 328° |
| 2026-05-04 19:42 | 39.43069 | -119.50200 | 12965 ft | 270 kts | 328° |
| 2026-05-04 19:42 | 39.44409 | -119.51453 | 12747 ft | 265 kts | 329° |
| 2026-05-04 19:42 | 39.45751 | -119.52709 | 12476 ft | 262 kts | 328° |
| 2026-05-04 19:43 | 39.47116 | -119.53984 | 12220 ft | 259 kts | 328° |
| 2026-05-04 19:43 | 39.48437 | -119.55215 | 11940 ft | 257 kts | 328° |
| 2026-05-04 19:43 | 39.49717 | -119.56416 | 11785 ft | 250 kts | 328° |
| 2026-05-04 19:43 | 39.50939 | -119.57561 | 11629 ft | 243 kts | 328° |
| 2026-05-04 19:44 | 39.52110 | -119.58662 | 11425 ft | 239 kts | 328° |
| 2026-05-04 19:44 | 39.53274 | -119.59751 | 11120 ft | 240 kts | 328° |
| 2026-05-04 19:44 | 39.54477 | -119.60876 | 10741 ft | 244 kts | 328° |
| 2026-05-04 19:44 | 39.55744 | -119.62059 | 10108 ft | 258 kts | 327° |
| 2026-05-04 19:45 | 39.57099 | -119.63325 | 9587 ft | 262 kts | 327° |
| 2026-05-04 19:45 | 39.58438 | -119.64585 | 9088 ft | 260 kts | 327° |
| 2026-05-04 19:45 | 39.59782 | -119.65897 | 8529 ft | 259 kts | 317° |
| 2026-05-04 19:45 | 39.60789 | -119.67611 | 7966 ft | 260 kts | 296° |
| 2026-05-04 19:46 | 39.61260 | -119.69621 | 7394 ft | 250 kts | 276° |
| 2026-05-04 19:46 | 39.61198 | -119.71645 | 6810 ft | 239 kts | 257° |
| 2026-05-04 19:46 | 39.60694 | -119.73415 | 6404 ft | 226 kts | 241° |
| 2026-05-04 19:46 | 39.59845 | -119.74897 | 5792 ft | 221 kts | 227° |
| 2026-05-04 19:47 | 39.58805 | -119.76025 | 5402 ft | 211 kts | 209° |
| 2026-05-04 19:47 | 39.57618 | -119.76620 | 5280 ft | 190 kts | 194° |
| 2026-05-04 19:47 | 39.56510 | -119.76775 | 5304 ft | 177 kts | 184° |
| 2026-05-04 19:47 | 39.55376 | -119.76760 | 5147 ft | 172 kts | 181° |
| 2026-05-04 19:48 | 39.54336 | -119.76726 | 4937 ft | 159 kts | 181° |
| 2026-05-04 19:48 | 39.53368 | -119.76701 | 4769 ft | 145 kts | 181° |
| 2026-05-04 19:48 | 39.52511 | -119.76685 | 4601 ft | 138 kts | 181° |
| 2026-05-04 19:48 | 39.51660 | -119.76672 | 4484 ft | 136 kts | 182° |
| 2026-05-04 19:49 | 39.50829 | -119.76678 | 4416 ft | 126 kts | 181° |
| 2026-05-04 19:49 | 39.50163 | -119.76681 | 4411 ft | 83 kts | 181° |
| 2026-05-04 19:49 | 39.49731 | -119.76684 | 4411 ft | 52 kts | 181° |
| 2026-05-04 19:49 | 39.49507 | -119.76749 | 4411 ft | 27 kts | 210° |
| 2026-05-04 19:50 | 39.49365 | -119.76859 | 4411 ft | 23 kts | 216° |
| 2026-05-04 19:50 | 39.49281 | -119.77002 | 4412 ft | 15 kts | 243° |
| 2026-05-04 19:50 | 39.49303 | -119.77067 | 4413 ft | 9 kts | 350° |
| 2026-05-04 19:50 | 39.49367 | -119.77068 | 4412 ft | 10 kts | 359° |
| 2026-05-04 19:51 | 39.49439 | -119.77070 | 4412 ft | 11 kts | 358° |
| 2026-05-04 19:51 | 39.49513 | -119.77071 | 4412 ft | 11 kts | 1° |
| 2026-05-04 19:51 | 39.49591 | -119.77070 | 4412 ft | 12 kts | 360° |
| 2026-05-04 19:51 | 39.49681 | -119.77070 | 4412 ft | 15 kts | 360° |
| 2026-05-04 19:52 | 39.49799 | -119.77070 | 4412 ft | 18 kts | 359° |
| 2026-05-04 19:52 | 39.49921 | -119.77069 | 4412 ft | 19 kts | 1° |
| 2026-05-04 19:52 | 39.50049 | -119.77068 | 4412 ft | 21 kts | 360° |
| 2026-05-04 19:52 | 39.50181 | -119.77068 | 4414 ft | 20 kts | 0° |
| 2026-05-04 19:53 | 39.50306 | -119.77068 | 4414 ft | 19 kts | 359° |
| 2026-05-04 19:53 | 39.50376 | -119.77112 | 4414 ft | 11 kts | 300° |
| 2026-05-04 19:53 | 39.50434 | -119.77155 | 4414 ft | 11 kts | 5° |
| 2026-05-04 19:53 | 39.50514 | -119.77151 | 4414 ft | 11 kts | 0° |
| 2026-05-04 19:54 | 39.50581 | -119.77166 | 4415 ft | 10 kts | 308° |
| 2026-05-04 19:54 | 39.50590 | -119.77253 | 4416 ft | 10 kts | 268° |
| 2026-05-04 19:54 | 39.50584 | -119.77313 | 4417 ft | 4 kts | 225° |
| 2026-05-04 19:54 | 39.50549 | -119.77322 | 4417 ft | 5 kts | 184° |
| 2026-05-04 19:55 | 39.50529 | -119.77322 | 4417 ft | 0 kts | 180° |
| 2026-05-04 19:55 | 39.50528 | -119.77322 | 4417 ft | 0 kts | 180° |
| 2026-05-04 19:55 | 39.50526 | -119.77322 | 4417 ft | 0 kts | 180° |